sensor_id;sensor_type;location;lat;lon;timestamp;pressure;altitude;pressure_sealevel;temperature;humidity
76998;BME280;65930;48.874;10.734;2023-02-26T00:01:44;95318.16;;;-1.98;79.30
76998;BME280;65930;48.874;10.734;2023-02-26T00:04:15;95342.38;;;-1.81;78.65
76998;BME280;65930;48.874;10.734;2023-02-26T00:06:43;95322.78;;;-1.98;77.63
76998;BME280;65930;48.874;10.734;2023-02-26T00:09:25;95332.06;;;-1.99;79.00
76998;BME280;65930;48.874;10.734;2023-02-26T00:11:56;95324.50;;;-2.06;79.69
76998;BME280;65930;48.874;10.734;2023-02-26T00:14:26;95334.88;;;-1.96;78.18
76998;BME280;65930;48.874;10.734;2023-02-26T00:19:31;95345.53;;;-1.79;77.35
76998;BME280;65930;48.874;10.734;2023-02-26T00:21:59;95349.59;;;-1.72;78.31
76998;BME280;65930;48.874;10.734;2023-02-26T00:24:28;95349.50;;;-1.76;77.98
76998;BME280;65930;48.874;10.734;2023-02-26T00:26:55;95350.53;;;-1.68;78.36
76998;BME280;65930;48.874;10.734;2023-02-26T00:29:24;95353.03;;;-1.63;77.11
76998;BME280;65930;48.874;10.734;2023-02-26T00:31:52;95357.28;;;-1.62;77.03
76998;BME280;65930;48.874;10.734;2023-02-26T00:34:21;95352.22;;;-1.64;77.54
76998;BME280;65930;48.874;10.734;2023-02-26T00:37:04;95358.00;;;-1.77;77.95
76998;BME280;65930;48.874;10.734;2023-02-26T00:39:43;95363.88;;;-1.75;76.95
76998;BME280;65930;48.874;10.734;2023-02-26T00:42:17;95363.44;;;-1.77;77.22
76998;BME280;65930;48.874;10.734;2023-02-26T00:44:46;95368.97;;;-1.74;77.71
76998;BME280;65930;48.874;10.734;2023-02-26T00:47:22;95364.22;;;-1.65;77.61
76998;BME280;65930;48.874;10.734;2023-02-26T00:50:08;95358.34;;;-1.55;77.81
76998;BME280;65930;48.874;10.734;2023-02-26T00:52:49;95364.88;;;-1.68;77.69
76998;BME280;65930;48.874;10.734;2023-02-26T00:55:19;95367.38;;;-1.75;77.53
76998;BME280;65930;48.874;10.734;2023-02-26T00:57:47;95368.59;;;-1.72;77.55
76998;BME280;65930;48.874;10.734;2023-02-26T01:00:16;95362.75;;;-1.74;77.35
76998;BME280;65930;48.874;10.734;2023-02-26T01:02:44;95366.38;;;-1.83;78.04
76998;BME280;65930;48.874;10.734;2023-02-26T01:05:14;95372.22;;;-1.93;77.76
76998;BME280;65930;48.874;10.734;2023-02-26T01:07:50;95370.19;;;-1.84;78.84
76998;BME280;65930;48.874;10.734;2023-02-26T01:10:21;95377.75;;;-1.77;78.53
76998;BME280;65930;48.874;10.734;2023-02-26T01:12:49;95372.00;;;-1.75;78.70
76998;BME280;65930;48.874;10.734;2023-02-26T01:15:18;95365.22;;;-1.82;77.63
76998;BME280;65930;48.874;10.734;2023-02-26T01:17:52;95367.22;;;-2.03;78.38
76998;BME280;65930;48.874;10.734;2023-02-26T01:20:26;95369.13;;;-2.15;78.34
76998;BME280;65930;48.874;10.734;2023-02-26T01:23:02;95373.34;;;-2.06;78.44
76998;BME280;65930;48.874;10.734;2023-02-26T01:25:36;95368.75;;;-2.26;78.59
76998;BME280;65930;48.874;10.734;2023-02-26T01:28:06;95367.75;;;-2.22;79.16
76998;BME280;65930;48.874;10.734;2023-02-26T01:30:35;95366.38;;;-2.28;78.16
76998;BME280;65930;48.874;10.734;2023-02-26T01:33:12;95372.72;;;-2.24;79.25
76998;BME280;65930;48.874;10.734;2023-02-26T01:35:44;95370.91;;;-2.32;79.16
76998;BME280;65930;48.874;10.734;2023-02-26T01:38:21;95373.97;;;-2.21;78.58
76998;BME280;65930;48.874;10.734;2023-02-26T01:41:21;95369.00;;;-2.19;79.07
76998;BME280;65930;48.874;10.734;2023-02-26T01:46:57;95376.59;;;-2.12;79.33
76998;BME280;65930;48.874;10.734;2023-02-26T01:49:27;95369.31;;;-2.33;80.25
76998;BME280;65930;48.874;10.734;2023-02-26T01:51:57;95375.50;;;-2.44;80.20
76998;BME280;65930;48.874;10.734;2023-02-26T01:54:30;95372.41;;;-2.55;81.90
76998;BME280;65930;48.874;10.734;2023-02-26T01:57:01;95380.44;;;-2.46;81.20
76998;BME280;65930;48.874;10.734;2023-02-26T01:59:35;95384.13;;;-2.30;81.01
76998;BME280;65930;48.874;10.734;2023-02-26T02:02:07;95372.38;;;-2.22;80.54
76998;BME280;65930;48.874;10.734;2023-02-26T02:04:37;95376.00;;;-2.30;80.15
76998;BME280;65930;48.874;10.734;2023-02-26T02:07:07;95376.22;;;-2.23;80.57
76998;BME280;65930;48.874;10.734;2023-02-26T02:09:37;95382.81;;;-2.12;79.78
76998;BME280;65930;48.874;10.734;2023-02-26T02:12:24;95371.28;;;-2.09;79.72
76998;BME280;65930;48.874;10.734;2023-02-26T02:15:03;95373.66;;;-2.07;79.17
76998;BME280;65930;48.874;10.734;2023-02-26T02:17:43;95367.88;;;-2.18;79.33
76998;BME280;65930;48.874;10.734;2023-02-26T02:20:46;95378.44;;;-2.37;78.53
76998;BME280;65930;48.874;10.734;2023-02-26T02:23:25;95385.72;;;-2.29;79.71
76998;BME280;65930;48.874;10.734;2023-02-26T02:26:31;95378.66;;;-2.42;79.88
76998;BME280;65930;48.874;10.734;2023-02-26T02:29:26;95380.25;;;-2.41;79.15
76998;BME280;65930;48.874;10.734;2023-02-26T02:32:01;95387.63;;;-2.62;79.39
76998;BME280;65930;48.874;10.734;2023-02-26T02:34:39;95380.81;;;-2.48;79.44
76998;BME280;65930;48.874;10.734;2023-02-26T02:37:14;95384.31;;;-2.47;78.22
76998;BME280;65930;48.874;10.734;2023-02-26T02:39:46;95394.22;;;-2.51;77.89
76998;BME280;65930;48.874;10.734;2023-02-26T02:42:22;95395.16;;;-2.47;77.73
76998;BME280;65930;48.874;10.734;2023-02-26T02:44:57;95397.41;;;-2.49;77.38
76998;BME280;65930;48.874;10.734;2023-02-26T02:47:31;95389.44;;;-2.67;77.76
76998;BME280;65930;48.874;10.734;2023-02-26T02:50:07;95394.66;;;-2.61;77.46
76998;BME280;65930;48.874;10.734;2023-02-26T02:52:43;95399.41;;;-2.58;76.78
76998;BME280;65930;48.874;10.734;2023-02-26T02:55:18;95394.22;;;-2.51;76.80
76998;BME280;65930;48.874;10.734;2023-02-26T02:57:52;95395.03;;;-2.72;77.01
76998;BME280;65930;48.874;10.734;2023-02-26T03:00:23;95396.38;;;-2.78;76.85
76998;BME280;65930;48.874;10.734;2023-02-26T03:03:00;95398.59;;;-2.80;77.36
76998;BME280;65930;48.874;10.734;2023-02-26T03:05:31;95403.66;;;-2.90;78.34
76998;BME280;65930;48.874;10.734;2023-02-26T03:08:04;95405.63;;;-2.79;78.46
76998;BME280;65930;48.874;10.734;2023-02-26T03:10:33;95401.13;;;-2.75;78.22
76998;BME280;65930;48.874;10.734;2023-02-26T03:13:01;95402.59;;;-2.77;77.90
76998;BME280;65930;48.874;10.734;2023-02-26T03:15:36;95407.34;;;-2.74;78.02
76998;BME280;65930;48.874;10.734;2023-02-26T03:18:19;95416.06;;;-2.69;77.74
76998;BME280;65930;48.874;10.734;2023-02-26T03:21:00;95413.69;;;-2.91;77.01
76998;BME280;65930;48.874;10.734;2023-02-26T03:23:35;95417.81;;;-2.85;78.14
76998;BME280;65930;48.874;10.734;2023-02-26T03:26:12;95425.38;;;-2.78;77.39
76998;BME280;65930;48.874;10.734;2023-02-26T03:28:49;95424.78;;;-2.84;78.15
76998;BME280;65930;48.874;10.734;2023-02-26T03:31:28;95419.25;;;-2.67;77.34
76998;BME280;65930;48.874;10.734;2023-02-26T03:34:03;95417.91;;;-2.60;76.91
76998;BME280;65930;48.874;10.734;2023-02-26T03:36:38;95432.66;;;-2.49;77.18
76998;BME280;65930;48.874;10.734;2023-02-26T03:39:13;95431.25;;;-2.55;77.54
76998;BME280;65930;48.874;10.734;2023-02-26T03:41:48;95443.50;;;-2.49;77.66
76998;BME280;65930;48.874;10.734;2023-02-26T03:44:26;95437.34;;;-2.58;77.19
76998;BME280;65930;48.874;10.734;2023-02-26T03:46:59;95446.88;;;-2.52;76.71
76998;BME280;65930;48.874;10.734;2023-02-26T03:49:35;95446.41;;;-2.54;76.96
76998;BME280;65930;48.874;10.734;2023-02-26T03:52:05;95450.13;;;-2.59;76.24
76998;BME280;65930;48.874;10.734;2023-02-26T03:54:38;95457.41;;;-2.72;76.41
76998;BME280;65930;48.874;10.734;2023-02-26T03:57:08;95455.59;;;-2.88;76.93
76998;BME280;65930;48.874;10.734;2023-02-26T03:59:36;95456.66;;;-2.81;76.77
76998;BME280;65930;48.874;10.734;2023-02-26T04:02:10;95464.63;;;-2.84;76.62
76998;BME280;65930;48.874;10.734;2023-02-26T04:04:48;95464.31;;;-3.03;77.36
76998;BME280;65930;48.874;10.734;2023-02-26T04:07:19;95471.72;;;-2.92;77.34
76998;BME280;65930;48.874;10.734;2023-02-26T04:09:50;95481.41;;;-3.12;76.94
76998;BME280;65930;48.874;10.734;2023-02-26T04:12:20;95487.72;;;-2.99;76.28
76998;BME280;65930;48.874;10.734;2023-02-26T04:14:49;95476.41;;;-3.01;76.26
76998;BME280;65930;48.874;10.734;2023-02-26T04:17:17;95480.84;;;-2.96;76.63
76998;BME280;65930;48.874;10.734;2023-02-26T04:19:46;95482.88;;;-2.93;75.32
76998;BME280;65930;48.874;10.734;2023-02-26T04:22:15;95474.63;;;-2.97;75.49
76998;BME280;65930;48.874;10.734;2023-02-26T04:24:42;95478.84;;;-3.08;74.80
76998;BME280;65930;48.874;10.734;2023-02-26T04:27:10;95481.06;;;-3.10;75.15
76998;BME280;65930;48.874;10.734;2023-02-26T04:29:38;95487.59;;;-3.11;74.90
76998;BME280;65930;48.874;10.734;2023-02-26T04:32:06;95483.97;;;-3.15;75.76
76998;BME280;65930;48.874;10.734;2023-02-26T04:34:34;95489.75;;;-3.25;75.21
76998;BME280;65930;48.874;10.734;2023-02-26T04:37:03;95491.13;;;-3.48;75.84
76998;BME280;65930;48.874;10.734;2023-02-26T04:39:31;95486.72;;;-3.62;76.01
76998;BME280;65930;48.874;10.734;2023-02-26T04:41:59;95491.53;;;-3.67;76.44
76998;BME280;65930;48.874;10.734;2023-02-26T04:44:28;95492.63;;;-3.60;75.46
76998;BME280;65930;48.874;10.734;2023-02-26T04:46:56;95492.16;;;-3.62;76.39
76998;BME280;65930;48.874;10.734;2023-02-26T04:49:24;95507.25;;;-3.52;75.82
76998;BME280;65930;48.874;10.734;2023-02-26T04:51:52;95500.06;;;-3.48;76.02
76998;BME280;65930;48.874;10.734;2023-02-26T04:54:21;95505.19;;;-3.55;75.39
76998;BME280;65930;48.874;10.734;2023-02-26T04:56:49;95505.94;;;-3.46;74.96
76998;BME280;65930;48.874;10.734;2023-02-26T04:59:17;95508.50;;;-3.49;75.40
76998;BME280;65930;48.874;10.734;2023-02-26T05:01:45;95499.44;;;-3.53;75.73
76998;BME280;65930;48.874;10.734;2023-02-26T05:04:13;95506.31;;;-3.56;75.11
76998;BME280;65930;48.874;10.734;2023-02-26T05:06:41;95512.16;;;-3.45;75.11
76998;BME280;65930;48.874;10.734;2023-02-26T05:09:09;95506.56;;;-3.49;75.95
76998;BME280;65930;48.874;10.734;2023-02-26T05:11:38;95516.44;;;-3.44;75.79
76998;BME280;65930;48.874;10.734;2023-02-26T05:14:06;95523.59;;;-3.40;75.21
76998;BME280;65930;48.874;10.734;2023-02-26T05:16:34;95530.91;;;-3.40;75.08
76998;BME280;65930;48.874;10.734;2023-02-26T05:19:02;95529.34;;;-3.41;75.07
76998;BME280;65930;48.874;10.734;2023-02-26T05:21:30;95526.94;;;-3.43;74.68
76998;BME280;65930;48.874;10.734;2023-02-26T05:23:58;95534.44;;;-3.48;74.98
76998;BME280;65930;48.874;10.734;2023-02-26T05:26:26;95517.47;;;-3.66;74.41
76998;BME280;65930;48.874;10.734;2023-02-26T05:28:55;95533.84;;;-3.63;74.97
76998;BME280;65930;48.874;10.734;2023-02-26T05:31:23;95528.59;;;-3.59;75.59
76998;BME280;65930;48.874;10.734;2023-02-26T05:33:53;95522.41;;;-3.60;74.86
76998;BME280;65930;48.874;10.734;2023-02-26T05:36:20;95531.31;;;-3.68;75.74
76998;BME280;65930;48.874;10.734;2023-02-26T05:38:49;95517.81;;;-3.76;75.52
76998;BME280;65930;48.874;10.734;2023-02-26T05:41:17;95532.47;;;-3.69;75.19
76998;BME280;65930;48.874;10.734;2023-02-26T05:43:45;95532.03;;;-3.88;75.34
76998;BME280;65930;48.874;10.734;2023-02-26T05:46:14;95532.97;;;-3.84;75.67
76998;BME280;65930;48.874;10.734;2023-02-26T05:48:42;95546.16;;;-3.91;75.87
76998;BME280;65930;48.874;10.734;2023-02-26T05:51:11;95552.72;;;-3.92;76.82
76998;BME280;65930;48.874;10.734;2023-02-26T05:53:39;95551.59;;;-4.00;76.84
76998;BME280;65930;48.874;10.734;2023-02-26T05:56:07;95552.72;;;-3.92;77.01
76998;BME280;65930;48.874;10.734;2023-02-26T05:58:35;95547.28;;;-3.75;75.99
76998;BME280;65930;48.874;10.734;2023-02-26T06:01:03;95551.41;;;-3.69;75.90
76998;BME280;65930;48.874;10.734;2023-02-26T06:03:33;95556.81;;;-3.69;75.30
76998;BME280;65930;48.874;10.734;2023-02-26T06:06:00;95565.09;;;-3.74;75.48
76998;BME280;65930;48.874;10.734;2023-02-26T06:08:28;95566.84;;;-3.78;76.27
76998;BME280;65930;48.874;10.734;2023-02-26T06:10:56;95570.53;;;-3.74;76.10
76998;BME280;65930;48.874;10.734;2023-02-26T06:13:24;95565.09;;;-3.74;75.92
76998;BME280;65930;48.874;10.734;2023-02-26T06:15:52;95568.91;;;-3.75;75.10
76998;BME280;65930;48.874;10.734;2023-02-26T06:18:20;95572.13;;;-3.90;76.17
76998;BME280;65930;48.874;10.734;2023-02-26T06:20:49;95578.47;;;-3.86;75.25
76998;BME280;65930;48.874;10.734;2023-02-26T06:23:17;95584.22;;;-3.79;75.32
76998;BME280;65930;48.874;10.734;2023-02-26T06:25:45;95589.78;;;-3.75;75.20
76998;BME280;65930;48.874;10.734;2023-02-26T06:28:13;95573.41;;;-3.87;76.10
76998;BME280;65930;48.874;10.734;2023-02-26T06:30:41;95574.19;;;-3.78;75.56
76998;BME280;65930;48.874;10.734;2023-02-26T06:33:09;95593.72;;;-3.56;75.35
76998;BME280;65930;48.874;10.734;2023-02-26T06:35:37;95595.13;;;-3.49;74.17
76998;BME280;65930;48.874;10.734;2023-02-26T06:38:07;95604.84;;;-3.48;74.85
76998;BME280;65930;48.874;10.734;2023-02-26T06:40:35;95606.41;;;-3.39;75.29
76998;BME280;65930;48.874;10.734;2023-02-26T06:43:03;95605.78;;;-3.44;74.39
76998;BME280;65930;48.874;10.734;2023-02-26T06:45:31;95604.66;;;-3.35;74.75
76998;BME280;65930;48.874;10.734;2023-02-26T06:47:59;95628.19;;;-3.18;74.35
76998;BME280;65930;48.874;10.734;2023-02-26T06:50:27;95626.09;;;-3.04;74.51
76998;BME280;65930;48.874;10.734;2023-02-26T06:52:55;95633.56;;;-3.01;75.29
76998;BME280;65930;48.874;10.734;2023-02-26T06:55:24;95640.22;;;-2.90;75.14
76998;BME280;65930;48.874;10.734;2023-02-26T06:57:53;95646.75;;;-2.91;74.94
76998;BME280;65930;48.874;10.734;2023-02-26T07:00:22;95631.50;;;-3.04;74.93
76998;BME280;65930;48.874;10.734;2023-02-26T07:02:51;95643.72;;;-2.89;74.94
76998;BME280;65930;48.874;10.734;2023-02-26T07:05:20;95651.50;;;-2.88;74.65
76998;BME280;65930;48.874;10.734;2023-02-26T07:07:48;95644.94;;;-2.78;75.91
76998;BME280;65930;48.874;10.734;2023-02-26T07:10:16;95654.41;;;-2.55;75.45
76998;BME280;65930;48.874;10.734;2023-02-26T07:12:45;95661.28;;;-2.57;74.10
76998;BME280;65930;48.874;10.734;2023-02-26T07:15:14;95656.44;;;-2.52;74.56
76998;BME280;65930;48.874;10.734;2023-02-26T07:17:43;95662.41;;;-2.58;74.68
76998;BME280;65930;48.874;10.734;2023-02-26T07:20:11;95670.22;;;-2.66;75.42
76998;BME280;65930;48.874;10.734;2023-02-26T07:22:40;95667.63;;;-2.91;76.22
76998;BME280;65930;48.874;10.734;2023-02-26T07:25:08;95666.34;;;-2.94;76.20
76998;BME280;65930;48.874;10.734;2023-02-26T07:27:36;95672.56;;;-2.85;76.14
76998;BME280;65930;48.874;10.734;2023-02-26T07:30:07;95678.13;;;-2.81;76.14
76998;BME280;65930;48.874;10.734;2023-02-26T07:32:36;95674.31;;;-2.80;75.88
76998;BME280;65930;48.874;10.734;2023-02-26T07:35:04;95678.00;;;-2.93;76.35
76998;BME280;65930;48.874;10.734;2023-02-26T07:37:32;95675.38;;;-2.73;75.82
76998;BME280;65930;48.874;10.734;2023-02-26T07:40:00;95676.16;;;-2.34;74.15
76998;BME280;65930;48.874;10.734;2023-02-26T07:42:29;95678.09;;;-2.05;74.20
76998;BME280;65930;48.874;10.734;2023-02-26T07:44:57;95673.22;;;-2.00;73.22
76998;BME280;65930;48.874;10.734;2023-02-26T07:47:26;95675.69;;;-1.86;73.53
76998;BME280;65930;48.874;10.734;2023-02-26T07:49:56;95673.41;;;-2.05;72.72
76998;BME280;65930;48.874;10.734;2023-02-26T07:52:24;95684.25;;;-2.26;72.96
76998;BME280;65930;48.874;10.734;2023-02-26T07:54:51;95687.84;;;-2.13;73.15
76998;BME280;65930;48.874;10.734;2023-02-26T07:57:19;95685.00;;;-1.96;73.44
76998;BME280;65930;48.874;10.734;2023-02-26T07:59:47;95674.16;;;-1.96;72.70
76998;BME280;65930;48.874;10.734;2023-02-26T08:02:15;95688.28;;;-1.61;72.21
76998;BME280;65930;48.874;10.734;2023-02-26T08:04:45;95695.69;;;-1.28;71.31
76998;BME280;65930;48.874;10.734;2023-02-26T08:07:14;95694.16;;;-1.17;71.33
76998;BME280;65930;48.874;10.734;2023-02-26T08:09:42;95696.59;;;-1.24;71.68
76998;BME280;65930;48.874;10.734;2023-02-26T08:12:10;95697.66;;;-1.17;70.77
76998;BME280;65930;48.874;10.734;2023-02-26T08:14:39;95713.78;;;-1.74;72.48
76998;BME280;65930;48.874;10.734;2023-02-26T08:17:07;95717.13;;;-1.68;73.30
76998;BME280;65930;48.874;10.734;2023-02-26T08:19:35;95702.44;;;-1.76;73.36
76998;BME280;65930;48.874;10.734;2023-02-26T08:22:05;95709.72;;;-1.68;72.48
76998;BME280;65930;48.874;10.734;2023-02-26T08:24:33;95715.13;;;-1.59;72.68
76998;BME280;65930;48.874;10.734;2023-02-26T08:27:01;95716.44;;;-1.45;71.69
76998;BME280;65930;48.874;10.734;2023-02-26T08:29:29;95718.22;;;-1.28;71.85
76998;BME280;65930;48.874;10.734;2023-02-26T08:31:57;95726.50;;;-0.92;70.41
76998;BME280;65930;48.874;10.734;2023-02-26T08:34:25;95718.94;;;-0.86;69.86
76998;BME280;65930;48.874;10.734;2023-02-26T08:36:53;95723.41;;;-1.02;70.95
76998;BME280;65930;48.874;10.734;2023-02-26T08:39:22;95717.53;;;-1.25;70.89
76998;BME280;65930;48.874;10.734;2023-02-26T08:41:50;95733.97;;;-1.01;69.81
76998;BME280;65930;48.874;10.734;2023-02-26T08:44:18;95725.13;;;-0.98;70.78
76998;BME280;65930;48.874;10.734;2023-02-26T08:46:46;95733.03;;;-1.05;71.19
76998;BME280;65930;48.874;10.734;2023-02-26T08:49:14;95739.50;;;-0.97;71.28
76998;BME280;65930;48.874;10.734;2023-02-26T08:51:42;95745.25;;;-1.11;70.08
76998;BME280;65930;48.874;10.734;2023-02-26T08:54:09;95740.47;;;-1.35;72.00
76998;BME280;65930;48.874;10.734;2023-02-26T08:56:39;95761.03;;;-1.25;71.37
76998;BME280;65930;48.874;10.734;2023-02-26T08:59:07;95754.50;;;-1.45;71.92
76998;BME280;65930;48.874;10.734;2023-02-26T09:01:37;95757.34;;;-1.41;73.30
76998;BME280;65930;48.874;10.734;2023-02-26T09:04:05;95750.19;;;-1.46;72.66
76998;BME280;65930;48.874;10.734;2023-02-26T09:06:33;95767.34;;;-1.12;73.04
76998;BME280;65930;48.874;10.734;2023-02-26T09:09:01;95765.97;;;-1.06;73.44
76998;BME280;65930;48.874;10.734;2023-02-26T09:11:29;95769.41;;;-0.97;70.86
76998;BME280;65930;48.874;10.734;2023-02-26T09:13:59;95772.78;;;-0.79;72.27
76998;BME280;65930;48.874;10.734;2023-02-26T09:16:29;95773.94;;;-0.68;70.46
76998;BME280;65930;48.874;10.734;2023-02-26T09:19:01;95780.97;;;-1.00;72.17
76998;BME280;65930;48.874;10.734;2023-02-26T09:21:29;95784.50;;;-1.00;72.40
76998;BME280;65930;48.874;10.734;2023-02-26T09:23:58;95790.84;;;-0.96;71.71
76998;BME280;65930;48.874;10.734;2023-02-26T09:26:26;95788.44;;;-0.76;72.89
76998;BME280;65930;48.874;10.734;2023-02-26T09:28:54;95801.16;;;-0.68;73.72
76998;BME280;65930;48.874;10.734;2023-02-26T09:31:23;95805.75;;;-0.48;72.97
76998;BME280;65930;48.874;10.734;2023-02-26T09:33:51;95804.78;;;-1.18;73.33
76998;BME280;65930;48.874;10.734;2023-02-26T09:36:19;95808.75;;;-0.95;74.40
76998;BME280;65930;48.874;10.734;2023-02-26T09:38:47;95799.31;;;-0.97;74.39
76998;BME280;65930;48.874;10.734;2023-02-26T09:41:21;95817.78;;;-1.03;73.51
76998;BME280;65930;48.874;10.734;2023-02-26T09:44:18;95820.69;;;-0.54;72.05
76998;BME280;65930;48.874;10.734;2023-02-26T09:46:55;95819.91;;;-0.55;72.22
76998;BME280;65930;48.874;10.734;2023-02-26T09:49:33;95829.94;;;-0.67;73.06
76998;BME280;65930;48.874;10.734;2023-02-26T09:52:13;95838.38;;;-0.81;71.23
76998;BME280;65930;48.874;10.734;2023-02-26T09:54:47;95825.06;;;-0.95;72.18
76998;BME280;65930;48.874;10.734;2023-02-26T09:57:26;95834.88;;;-1.02;72.69
76998;BME280;65930;48.874;10.734;2023-02-26T09:59:56;95835.84;;;-1.07;73.65
76998;BME280;65930;48.874;10.734;2023-02-26T10:02:37;95829.25;;;-1.18;75.37
76998;BME280;65930;48.874;10.734;2023-02-26T10:05:18;95830.69;;;-1.20;74.05
76998;BME280;65930;48.874;10.734;2023-02-26T10:07:54;95838.50;;;-1.19;75.06
76998;BME280;65930;48.874;10.734;2023-02-26T10:10:34;95841.78;;;-1.05;75.43
76998;BME280;65930;48.874;10.734;2023-02-26T10:13:09;95837.84;;;-1.16;74.71
76998;BME280;65930;48.874;10.734;2023-02-26T10:15:49;95846.16;;;-0.92;72.81
76998;BME280;65930;48.874;10.734;2023-02-26T10:18:25;95840.34;;;-0.69;73.13
76998;BME280;65930;48.874;10.734;2023-02-26T10:20:57;95839.84;;;-0.83;73.17
76998;BME280;65930;48.874;10.734;2023-02-26T10:23:35;95837.72;;;-0.78;74.67
76998;BME280;65930;48.874;10.734;2023-02-26T10:26:12;95840.31;;;-0.61;73.61
76998;BME280;65930;48.874;10.734;2023-02-26T10:28:51;95836.47;;;-0.80;74.75
76998;BME280;65930;48.874;10.734;2023-02-26T10:31:26;95842.16;;;-0.73;73.51
76998;BME280;65930;48.874;10.734;2023-02-26T10:34:12;95847.59;;;-0.40;74.40
76998;BME280;65930;48.874;10.734;2023-02-26T10:36:46;95849.59;;;-0.29;72.21
76998;BME280;65930;48.874;10.734;2023-02-26T10:39:22;95839.50;;;-0.16;73.56
76998;BME280;65930;48.874;10.734;2023-02-26T10:41:56;95854.41;;;0.11;71.56
76998;BME280;65930;48.874;10.734;2023-02-26T10:44:31;95854.00;;;0.45;70.91
76998;BME280;65930;48.874;10.734;2023-02-26T10:47:14;95853.66;;;-0.23;70.85
76998;BME280;65930;48.874;10.734;2023-02-26T10:49:53;95843.56;;;-0.34;73.52
76998;BME280;65930;48.874;10.734;2023-02-26T10:52:23;95844.91;;;0.05;74.53
76998;BME280;65930;48.874;10.734;2023-02-26T10:55:12;95848.72;;;-0.09;69.97
76998;BME280;65930;48.874;10.734;2023-02-26T10:57:51;95852.59;;;-0.10;71.29
76998;BME280;65930;48.874;10.734;2023-02-26T11:00:21;95851.00;;;0.02;72.66
76998;BME280;65930;48.874;10.734;2023-02-26T11:02:52;95849.69;;;-0.25;70.36
76998;BME280;65930;48.874;10.734;2023-02-26T11:05:24;95854.59;;;-0.19;72.10
76998;BME280;65930;48.874;10.734;2023-02-26T11:07:56;95855.31;;;0.15;70.51
76998;BME280;65930;48.874;10.734;2023-02-26T11:10:27;95847.63;;;0.05;68.54
76998;BME280;65930;48.874;10.734;2023-02-26T11:12:57;95853.22;;;-0.25;69.83
76998;BME280;65930;48.874;10.734;2023-02-26T11:15:26;95859.19;;;-0.31;70.98
76998;BME280;65930;48.874;10.734;2023-02-26T11:17:57;95853.63;;;-0.47;70.73
76998;BME280;65930;48.874;10.734;2023-02-26T11:20:35;95860.63;;;-0.46;70.94
76998;BME280;65930;48.874;10.734;2023-02-26T11:23:11;95853.75;;;-0.64;69.29
76998;BME280;65930;48.874;10.734;2023-02-26T11:25:39;95848.50;;;-0.49;71.05
76998;BME280;65930;48.874;10.734;2023-02-26T11:28:20;95860.91;;;-0.27;68.88
76998;BME280;65930;48.874;10.734;2023-02-26T11:30:49;95867.84;;;-0.29;69.27
76998;BME280;65930;48.874;10.734;2023-02-26T11:33:27;95869.16;;;-0.03;70.70
76998;BME280;65930;48.874;10.734;2023-02-26T11:36:01;95861.81;;;-0.35;69.08
76998;BME280;65930;48.874;10.734;2023-02-26T11:38:31;95858.91;;;-0.18;68.68
76998;BME280;65930;48.874;10.734;2023-02-26T11:41:01;95847.47;;;-0.11;66.29
76998;BME280;65930;48.874;10.734;2023-02-26T11:43:35;95843.97;;;0.00;66.53
76998;BME280;65930;48.874;10.734;2023-02-26T11:46:11;95852.81;;;0.10;67.22
76998;BME280;65930;48.874;10.734;2023-02-26T11:48:44;95856.81;;;0.12;66.70
76998;BME280;65930;48.874;10.734;2023-02-26T11:51:18;95855.25;;;0.23;65.59
76998;BME280;65930;48.874;10.734;2023-02-26T11:53:49;95840.34;;;0.33;66.19
76998;BME280;65930;48.874;10.734;2023-02-26T11:56:28;95850.72;;;0.39;64.72
76998;BME280;65930;48.874;10.734;2023-02-26T11:59:05;95840.50;;;0.36;64.12
76998;BME280;65930;48.874;10.734;2023-02-26T12:01:35;95840.94;;;0.26;63.85
76998;BME280;65930;48.874;10.734;2023-02-26T12:04:04;95851.72;;;0.35;63.82
76998;BME280;65930;48.874;10.734;2023-02-26T12:06:33;95848.31;;;0.38;62.79
76998;BME280;65930;48.874;10.734;2023-02-26T12:09:01;95849.88;;;0.15;61.82
76998;BME280;65930;48.874;10.734;2023-02-26T12:11:47;95860.34;;;0.13;65.00
76998;BME280;65930;48.874;10.734;2023-02-26T12:14:36;95844.09;;;0.04;63.94
76998;BME280;65930;48.874;10.734;2023-02-26T12:17:21;95842.97;;;0.29;64.97
76998;BME280;65930;48.874;10.734;2023-02-26T12:19:57;95841.50;;;0.44;64.04
76998;BME280;65930;48.874;10.734;2023-02-26T12:22:49;95856.38;;;0.71;63.27
76998;BME280;65930;48.874;10.734;2023-02-26T12:25:32;95849.00;;;0.59;62.87
76998;BME280;65930;48.874;10.734;2023-02-26T12:28:54;95849.66;;;0.56;63.03
76998;BME280;65930;48.874;10.734;2023-02-26T12:34:41;95847.97;;;0.64;61.64
76998;BME280;65930;48.874;10.734;2023-02-26T12:37:27;95840.25;;;0.78;61.65
76998;BME280;65930;48.874;10.734;2023-02-26T12:40:15;95857.16;;;0.71;62.10
76998;BME280;65930;48.874;10.734;2023-02-26T12:42:58;95858.03;;;1.00;63.10
76998;BME280;65930;48.874;10.734;2023-02-26T12:45:41;95859.19;;;0.86;63.45
76998;BME280;65930;48.874;10.734;2023-02-26T12:48:33;95869.31;;;0.86;64.53
76998;BME280;65930;48.874;10.734;2023-02-26T12:51:14;95866.94;;;0.72;65.43
76998;BME280;65930;48.874;10.734;2023-02-26T12:54:17;95873.19;;;0.61;65.73
76998;BME280;65930;48.874;10.734;2023-02-26T12:57:21;95866.28;;;0.63;66.53
76998;BME280;65930;48.874;10.734;2023-02-26T13:00:09;95873.28;;;0.52;66.30
76998;BME280;65930;48.874;10.734;2023-02-26T13:03:15;95876.81;;;0.53;64.30
76998;BME280;65930;48.874;10.734;2023-02-26T13:06:07;95868.31;;;0.54;65.01
76998;BME280;65930;48.874;10.734;2023-02-26T13:08:51;95873.88;;;0.58;64.09
76998;BME280;65930;48.874;10.734;2023-02-26T13:11:34;95874.66;;;0.58;63.62
76998;BME280;65930;48.874;10.734;2023-02-26T13:14:24;95874.31;;;0.48;63.46
76998;BME280;65930;48.874;10.734;2023-02-26T13:17:02;95872.03;;;0.37;65.18
76998;BME280;65930;48.874;10.734;2023-02-26T13:19:40;95882.59;;;0.39;64.33
76998;BME280;65930;48.874;10.734;2023-02-26T13:22:17;95876.72;;;0.49;63.84
76998;BME280;65930;48.874;10.734;2023-02-26T13:24:52;95871.38;;;0.53;61.35
76998;BME280;65930;48.874;10.734;2023-02-26T13:27:26;95878.75;;;0.64;61.97
76998;BME280;65930;48.874;10.734;2023-02-26T13:30:05;95878.19;;;0.71;59.88
76998;BME280;65930;48.874;10.734;2023-02-26T13:32:38;95868.06;;;0.96;62.37